sensor_id;sensor_type;location;lat;lon;timestamp;pressure;altitude;pressure_sealevel;temperature;humidity
71970;BME280;59838;52.152;5.436;2024-01-27T00:00:16;103493.34;;;0.89;100.00
71970;BME280;59838;52.152;5.436;2024-01-27T00:02:43;103506.09;;;0.91;100.00
71970;BME280;59838;52.152;5.436;2024-01-27T00:05:10;103505.31;;;0.89;100.00
71970;BME280;59838;52.152;5.436;2024-01-27T00:07:37;103511.31;;;0.88;100.00
71970;BME280;59838;52.152;5.436;2024-01-27T00:10:03;103514.75;;;0.87;100.00
71970;BME280;59838;52.152;5.436;2024-01-27T00:12:30;103513.03;;;0.87;100.00
71970;BME280;59838;52.152;5.436;2024-01-27T00:14:57;103516.44;;;0.88;100.00
71970;BME280;59838;52.152;5.436;2024-01-27T00:17:24;103510.47;;;0.87;100.00
71970;BME280;59838;52.152;5.436;2024-01-27T00:19:52;103520.72;;;0.87;100.00
71970;BME280;59838;52.152;5.436;2024-01-27T00:22:19;103521.63;;;0.86;100.00
71970;BME280;59838;52.152;5.436;2024-01-27T00:24:47;103524.28;;;0.83;100.00
71970;BME280;59838;52.152;5.436;2024-01-27T00:27:13;103515.88;;;0.80;100.00
71970;BME280;59838;52.152;5.436;2024-01-27T00:29:40;103512.56;;;0.76;100.00
71970;BME280;59838;52.152;5.436;2024-01-27T00:32:07;103510.13;;;0.73;100.00
71970;BME280;59838;52.152;5.436;2024-01-27T00:34:33;103516.13;;;0.72;100.00
71970;BME280;59838;52.152;5.436;2024-01-27T00:37:00;103519.56;;;0.71;100.00
71970;BME280;59838;52.152;5.436;2024-01-27T00:39:26;103516.13;;;0.72;100.00
71970;BME280;59838;52.152;5.436;2024-01-27T00:41:53;103512.78;;;0.70;100.00
71970;BME280;59838;52.152;5.436;2024-01-27T00:44:21;103515.34;;;0.70;100.00
71970;BME280;59838;52.152;5.436;2024-01-27T00:46:48;103515.44;;;0.67;100.00
71970;BME280;59838;52.152;5.436;2024-01-27T00:49:14;103518.06;;;0.65;100.00
71970;BME280;59838;52.152;5.436;2024-01-27T00:51:41;103513.03;;;0.62;100.00
71970;BME280;59838;52.152;5.436;2024-01-27T00:54:07;103507.16;;;0.60;100.00
71970;BME280;59838;52.152;5.436;2024-01-27T00:56:34;103506.34;;;0.58;100.00
71970;BME280;59838;52.152;5.436;2024-01-27T00:59:00;103508.16;;;0.54;100.00
71970;BME280;59838;52.152;5.436;2024-01-27T01:01:27;103509.13;;;0.52;100.00
71970;BME280;59838;52.152;5.436;2024-01-27T01:03:53;103514.28;;;0.50;100.00
71970;BME280;59838;52.152;5.436;2024-01-27T01:06:20;103514.13;;;0.55;100.00
71970;BME280;59838;52.152;5.436;2024-01-27T01:08:47;103514.06;;;0.57;100.00
71970;BME280;59838;52.152;5.436;2024-01-27T01:11:13;103516.75;;;0.53;100.00
71970;BME280;59838;52.152;5.436;2024-01-27T01:13:41;103521.75;;;0.57;100.00
71970;BME280;59838;52.152;5.436;2024-01-27T01:16:07;103529.31;;;0.60;100.00
71970;BME280;59838;52.152;5.436;2024-01-27T01:18:34;103530.31;;;0.56;100.00
71970;BME280;59838;52.152;5.436;2024-01-27T01:21:01;103528.63;;;0.54;100.00
71970;BME280;59838;52.152;5.436;2024-01-27T01:23:27;103531.28;;;0.51;100.00
71970;BME280;59838;52.152;5.436;2024-01-27T01:25:54;103528.06;;;0.46;100.00
71970;BME280;59838;52.152;5.436;2024-01-27T01:28:20;103522.06;;;0.47;100.00
71970;BME280;59838;52.152;5.436;2024-01-27T01:30:47;103528.84;;;0.48;100.00
71970;BME280;59838;52.152;5.436;2024-01-27T01:33:14;103522.94;;;0.46;100.00
71970;BME280;59838;52.152;5.436;2024-01-27T01:35:40;103524.72;;;0.44;100.00
71970;BME280;59838;52.152;5.436;2024-01-27T01:38:07;103509.38;;;0.44;100.00
71970;BME280;59838;52.152;5.436;2024-01-27T01:40:34;103509.38;;;0.44;100.00
71970;BME280;59838;52.152;5.436;2024-01-27T01:43:00;103523.03;;;0.43;100.00
71970;BME280;59838;52.152;5.436;2024-01-27T01:45:27;103519.69;;;0.41;100.00
71970;BME280;59838;52.152;5.436;2024-01-27T01:47:53;103511.97;;;0.43;100.00
71970;BME280;59838;52.152;5.436;2024-01-27T01:50:20;103527.28;;;0.44;100.00
71970;BME280;59838;52.152;5.436;2024-01-27T01:52:48;103527.38;;;0.41;100.00
71970;BME280;59838;52.152;5.436;2024-01-27T01:55:16;103530.75;;;0.42;100.00
71970;BME280;59838;52.152;5.436;2024-01-27T01:57:43;103546.16;;;0.40;100.00
71970;BME280;59838;52.152;5.436;2024-01-27T02:00:11;103540.25;;;0.38;100.00
71970;BME280;59838;52.152;5.436;2024-01-27T02:02:38;103538.53;;;0.39;100.00
71970;BME280;59838;52.152;5.436;2024-01-27T02:05:04;103540.22;;;0.40;100.00
71970;BME280;59838;52.152;5.436;2024-01-27T02:07:31;103530.91;;;0.37;100.00
71970;BME280;59838;52.152;5.436;2024-01-27T02:09:58;103529.34;;;0.33;100.00
71970;BME280;59838;52.152;5.436;2024-01-27T02:12:24;103538.56;;;0.37;100.00
71970;BME280;59838;52.152;5.436;2024-01-27T02:14:51;103534.31;;;0.38;100.00
71970;BME280;59838;52.152;5.436;2024-01-27T02:17:17;103532.69;;;0.35;100.00
71970;BME280;59838;52.152;5.436;2024-01-27T02:19:44;103536.22;;;0.31;100.00
71970;BME280;59838;52.152;5.436;2024-01-27T02:22:10;103523.53;;;0.28;100.00
71970;BME280;59838;52.152;5.436;2024-01-27T02:24:37;103532.13;;;0.25;100.00
71970;BME280;59838;52.152;5.436;2024-01-27T02:27:04;103524.50;;;0.24;100.00
71970;BME280;59838;52.152;5.436;2024-01-27T02:29:30;103522.81;;;0.23;100.00
71970;BME280;59838;52.152;5.436;2024-01-27T02:31:57;103530.50;;;0.23;100.00
71970;BME280;59838;52.152;5.436;2024-01-27T02:34:23;103519.50;;;0.21;100.00
71970;BME280;59838;52.152;5.436;2024-01-27T02:36:50;103534.03;;;0.18;100.00
71970;BME280;59838;52.152;5.436;2024-01-27T02:39:16;103524.69;;;0.17;100.00
71970;BME280;59838;52.152;5.436;2024-01-27T02:41:43;103521.34;;;0.15;100.00
71970;BME280;59838;52.152;5.436;2024-01-27T02:44:09;103524.75;;;0.16;100.00
71970;BME280;59838;52.152;5.436;2024-01-27T02:46:36;103530.66;;;0.18;100.00
71970;BME280;59838;52.152;5.436;2024-01-27T02:49:02;103530.50;;;0.23;100.00
71970;BME280;59838;52.152;5.436;2024-01-27T02:51:29;103536.41;;;0.25;100.00
71970;BME280;59838;52.152;5.436;2024-01-27T02:53:55;103531.34;;;0.23;100.00
71970;BME280;59838;52.152;5.436;2024-01-27T02:56:22;103539.03;;;0.23;100.00
71970;BME280;59838;52.152;5.436;2024-01-27T02:58:48;103542.41;;;0.24;100.00
71970;BME280;59838;52.152;5.436;2024-01-27T03:01:15;103532.97;;;0.26;100.00
71970;BME280;59838;52.152;5.436;2024-01-27T03:03:41;103534.69;;;0.25;100.00
71970;BME280;59838;52.152;5.436;2024-01-27T03:06:08;103543.28;;;0.23;100.00
71970;BME280;59838;52.152;5.436;2024-01-27T03:08:35;103537.34;;;0.22;100.00
71970;BME280;59838;52.152;5.436;2024-01-27T03:11:01;103531.31;;;0.25;100.00
71970;BME280;59838;52.152;5.436;2024-01-27T03:13:28;103537.00;;;0.33;100.00
71970;BME280;59838;52.152;5.436;2024-01-27T03:15:54;103535.22;;;0.35;100.00
71970;BME280;59838;52.152;5.436;2024-01-27T03:18:22;103543.72;;;0.35;100.00
71970;BME280;59838;52.152;5.436;2024-01-27T03:20:49;103537.78;;;0.35;100.00
71970;BME280;59838;52.152;5.436;2024-01-27T03:23:15;103535.13;;;0.38;100.00
71970;BME280;59838;52.152;5.436;2024-01-27T03:25:42;103545.28;;;0.41;100.00
71970;BME280;59838;52.152;5.436;2024-01-27T03:28:08;103535.03;;;0.41;100.00
71970;BME280;59838;52.152;5.436;2024-01-27T03:30:35;103525.78;;;0.37;100.00
71970;BME280;59838;52.152;5.436;2024-01-27T03:33:02;103530.06;;;0.36;100.00
71970;BME280;59838;52.152;5.436;2024-01-27T03:35:28;103527.56;;;0.35;100.00
71970;BME280;59838;52.152;5.436;2024-01-27T03:37:55;103531.84;;;0.34;100.00
71970;BME280;59838;52.152;5.436;2024-01-27T03:40:21;103536.97;;;0.34;100.00
71970;BME280;59838;52.152;5.436;2024-01-27T03:42:48;103537.78;;;0.35;100.00
71970;BME280;59838;52.152;5.436;2024-01-27T03:45:14;103531.03;;;0.32;100.00
71970;BME280;59838;52.152;5.436;2024-01-27T03:47:41;103527.59;;;0.33;100.00
71970;BME280;59838;52.152;5.436;2024-01-27T03:50:07;103536.09;;;0.34;100.00
71970;BME280;59838;52.152;5.436;2024-01-27T03:52:34;103534.44;;;0.33;100.00
71970;BME280;59838;52.152;5.436;2024-01-27T03:55:01;103533.59;;;0.32;100.00
71970;BME280;59838;52.152;5.436;2024-01-27T03:57:27;103543.03;;;0.30;100.00
71970;BME280;59838;52.152;5.436;2024-01-27T03:59:54;103549.78;;;0.33;100.00
71970;BME280;59838;52.152;5.436;2024-01-27T04:02:20;103549.03;;;0.31;100.00
71970;BME280;59838;52.152;5.436;2024-01-27T04:04:47;103553.22;;;0.32;100.00
71970;BME280;59838;52.152;5.436;2024-01-27T04:07:14;103554.91;;;0.33;100.00
71970;BME280;59838;52.152;5.436;2024-01-27T04:09:41;103546.47;;;0.31;100.00
71970;BME280;59838;52.152;5.436;2024-01-27T04:12:08;103544.63;;;0.34;100.00
71970;BME280;59838;52.152;5.436;2024-01-27T04:14:34;103548.06;;;0.33;100.00
71970;BME280;59838;52.152;5.436;2024-01-27T04:17:01;103546.34;;;0.34;100.00
71970;BME280;59838;52.152;5.436;2024-01-27T04:19:27;103539.47;;;0.36;100.00
71970;BME280;59838;52.152;5.436;2024-01-27T04:21:54;103546.25;;;0.37;100.00
71970;BME280;59838;52.152;5.436;2024-01-27T04:24:20;103551.34;;;0.37;100.00
71970;BME280;59838;52.152;5.436;2024-01-27T04:26:47;103555.66;;;0.36;100.00
71970;BME280;59838;52.152;5.436;2024-01-27T04:29:14;103549.69;;;0.36;100.00
71970;BME280;59838;52.152;5.436;2024-01-27T04:31:41;103549.75;;;0.34;100.00
71970;BME280;59838;52.152;5.436;2024-01-27T04:34:08;103563.28;;;0.38;100.00
71970;BME280;59838;52.152;5.436;2024-01-27T04:36:35;103564.16;;;0.37;100.00
71970;BME280;59838;52.152;5.436;2024-01-27T04:39:01;103561.59;;;0.37;100.00
71970;BME280;59838;52.152;5.436;2024-01-27T04:41:28;103565.81;;;0.38;100.00
71970;BME280;59838;52.152;5.436;2024-01-27T04:43:55;103569.31;;;0.35;100.00
71970;BME280;59838;52.152;5.436;2024-01-27T04:46:23;103559.16;;;0.32;100.00
71970;BME280;59838;52.152;5.436;2024-01-27T04:48:49;103548.16;;;0.30;100.00
71970;BME280;59838;52.152;5.436;2024-01-27T04:51:16;103561.91;;;0.28;100.00
71970;BME280;59838;52.152;5.436;2024-01-27T04:53:42;103558.53;;;0.26;100.00
71970;BME280;59838;52.152;5.436;2024-01-27T04:56:09;103555.13;;;0.25;100.00
71970;BME280;59838;52.152;5.436;2024-01-27T04:58:36;103555.09;;;0.27;100.00
71970;BME280;59838;52.152;5.436;2024-01-27T05:01:03;103558.53;;;0.26;100.00
71970;BME280;59838;52.152;5.436;2024-01-27T05:03:29;103562.81;;;0.25;100.00
71970;BME280;59838;52.152;5.436;2024-01-27T05:05:56;103566.28;;;0.23;100.00
71970;BME280;59838;52.152;5.436;2024-01-27T05:08:23;103556.97;;;0.22;100.00
71970;BME280;59838;52.152;5.436;2024-01-27T05:10:49;103555.22;;;0.22;100.00
71970;BME280;59838;52.152;5.436;2024-01-27T05:13:16;103549.25;;;0.23;100.00
71970;BME280;59838;52.152;5.436;2024-01-27T05:15:42;103551.75;;;0.25;100.00
71970;BME280;59838;52.152;5.436;2024-01-27T05:18:09;103554.13;;;0.31;100.00
71970;BME280;59838;52.152;5.436;2024-01-27T05:20:36;103553.13;;;0.35;100.00
71970;BME280;59838;52.152;5.436;2024-01-27T05:23:03;103540.31;;;0.36;100.00
71970;BME280;59838;52.152;5.436;2024-01-27T05:25:30;103531.75;;;0.38;100.00
71970;BME280;59838;52.152;5.436;2024-01-27T05:27:56;103528.38;;;0.35;100.00
71970;BME280;59838;52.152;5.436;2024-01-27T05:30:22;103537.78;;;0.35;100.00
71970;BME280;59838;52.152;5.436;2024-01-27T05:32:49;103538.66;;;0.34;100.00
71970;BME280;59838;52.152;5.436;2024-01-27T05:35:16;103538.47;;;0.40;100.00
71970;BME280;59838;52.152;5.436;2024-01-27T05:37:42;103540.25;;;0.38;100.00
71970;BME280;59838;52.152;5.436;2024-01-27T05:40:09;103527.59;;;0.33;100.00
71970;BME280;59838;52.152;5.436;2024-01-27T05:42:36;103535.31;;;0.32;100.00
71970;BME280;59838;52.152;5.436;2024-01-27T05:45:03;103532.88;;;0.29;100.00
71970;BME280;59838;52.152;5.436;2024-01-27T05:47:30;103536.31;;;0.28;100.00
71970;BME280;59838;52.152;5.436;2024-01-27T05:49:57;103527.75;;;0.29;100.00
71970;BME280;59838;52.152;5.436;2024-01-27T05:52:23;103530.16;;;0.33;100.00
71970;BME280;59838;52.152;5.436;2024-01-27T05:54:52;103541.22;;;0.34;100.00
71970;BME280;59838;52.152;5.436;2024-01-27T05:57:19;103536.06;;;0.35;100.00
71970;BME280;59838;52.152;5.436;2024-01-27T05:59:46;103536.00;;;0.37;100.00
71970;BME280;59838;52.152;5.436;2024-01-27T06:02:13;103539.34;;;0.41;100.00
71970;BME280;59838;52.152;5.436;2024-01-27T06:04:39;103535.09;;;0.40;100.00
71970;BME280;59838;52.152;5.436;2024-01-27T06:07:06;103530.06;;;0.36;100.00
71970;BME280;59838;52.152;5.436;2024-01-27T06:09:32;103530.13;;;0.35;100.00
71970;BME280;59838;52.152;5.436;2024-01-27T06:11:59;103539.56;;;0.33;100.00
71970;BME280;59838;52.152;5.436;2024-01-27T06:14:27;103540.34;;;0.35;100.00
71970;BME280;59838;52.152;5.436;2024-01-27T06:16:53;103549.75;;;0.34;100.00
71970;BME280;59838;52.152;5.436;2024-01-27T06:19:20;103542.84;;;0.36;100.00
71970;BME280;59838;52.152;5.436;2024-01-27T06:21:47;103548.03;;;0.35;100.00
71970;BME280;59838;52.152;5.436;2024-01-27T06:24:13;103543.72;;;0.35;100.00
71970;BME280;59838;52.152;5.436;2024-01-27T06:26:40;103547.16;;;0.36;100.00
71970;BME280;59838;52.152;5.436;2024-01-27T06:29:06;103542.13;;;0.33;100.00
71970;BME280;59838;52.152;5.436;2024-01-27T06:31:33;103543.94;;;0.29;100.00
71970;BME280;59838;52.152;5.436;2024-01-27T06:33:59;103551.56;;;0.31;100.00
71970;BME280;59838;52.152;5.436;2024-01-27T06:36:26;103550.63;;;0.33;100.00
71970;BME280;59838;52.152;5.436;2024-01-27T06:38:53;103550.63;;;0.33;100.00
71970;BME280;59838;52.152;5.436;2024-01-27T06:41:20;103544.69;;;0.33;100.00
71970;BME280;59838;52.152;5.436;2024-01-27T06:43:47;103542.22;;;0.30;100.00
71970;BME280;59838;52.152;5.436;2024-01-27T06:46:13;103543.13;;;0.27;100.00
71970;BME280;59838;52.152;5.436;2024-01-27T06:48:40;103545.75;;;0.26;100.00
71970;BME280;59838;52.152;5.436;2024-01-27T06:51:07;103552.63;;;0.24;100.00
71970;BME280;59838;52.152;5.436;2024-01-27T06:53:33;103548.47;;;0.21;100.00
71970;BME280;59838;52.152;5.436;2024-01-27T06:56:00;103543.44;;;0.18;100.00
71970;BME280;59838;52.152;5.436;2024-01-27T06:58:26;103556.13;;;0.21;100.00
71970;BME280;59838;52.152;5.436;2024-01-27T07:00:53;103554.47;;;0.20;100.00
71970;BME280;59838;52.152;5.436;2024-01-27T07:03:20;103551.13;;;0.18;100.00
71970;BME280;59838;52.152;5.436;2024-01-27T07:05:47;103555.38;;;0.17;100.00
71970;BME280;59838;52.152;5.436;2024-01-27T07:08:13;103559.56;;;0.20;100.00
71970;BME280;59838;52.152;5.436;2024-01-27T07:10:40;103561.19;;;0.23;100.00
71970;BME280;59838;52.152;5.436;2024-01-27T07:13:06;103563.72;;;0.23;100.00
71970;BME280;59838;52.152;5.436;2024-01-27T07:15:33;103566.28;;;0.23;100.00
71970;BME280;59838;52.152;5.436;2024-01-27T07:17:59;103574.03;;;0.21;100.00
71970;BME280;59838;52.152;5.436;2024-01-27T07:20:26;103579.25;;;0.18;100.00
71970;BME280;59838;52.152;5.436;2024-01-27T07:22:52;103580.94;;;0.17;100.00
71970;BME280;59838;52.152;5.436;2024-01-27T07:25:19;103587.75;;;0.18;100.00
71970;BME280;59838;52.152;5.436;2024-01-27T07:27:45;103578.28;;;0.21;100.00
71970;BME280;59838;52.152;5.436;2024-01-27T07:30:14;103587.66;;;0.22;100.00
71970;BME280;59838;52.152;5.436;2024-01-27T07:32:41;103587.66;;;0.22;100.00
71970;BME280;59838;52.152;5.436;2024-01-27T07:35:08;103594.41;;;0.23;100.00
71970;BME280;59838;52.152;5.436;2024-01-27T07:37:35;103584.19;;;0.23;100.00
71970;BME280;59838;52.152;5.436;2024-01-27T07:40:01;103589.25;;;0.24;100.00
71970;BME280;59838;52.152;5.436;2024-01-27T07:42:28;103587.50;;;0.26;100.00
71970;BME280;59838;52.152;5.436;2024-01-27T07:44:55;103601.03;;;0.30;100.00
71970;BME280;59838;52.152;5.436;2024-01-27T07:47:21;103590.81;;;0.30;100.00
71970;BME280;59838;52.152;5.436;2024-01-27T07:49:48;103604.28;;;0.35;100.00
71970;BME280;59838;52.152;5.436;2024-01-27T07:52:15;103595.66;;;0.39;100.00
71970;BME280;59838;52.152;5.436;2024-01-27T07:54:42;103599.75;;;0.43;100.00
71970;BME280;59838;52.152;5.436;2024-01-27T07:57:08;103599.63;;;0.48;100.00
71970;BME280;59838;52.152;5.436;2024-01-27T07:59:35;103610.59;;;0.51;100.00
71970;BME280;59838;52.152;5.436;2024-01-27T08:02:02;103604.56;;;0.54;100.00
71970;BME280;59838;52.152;5.436;2024-01-27T08:04:28;103595.88;;;0.58;100.00
71970;BME280;59838;52.152;5.436;2024-01-27T08:06:55;103600.81;;;0.64;100.00
71970;BME280;59838;52.152;5.436;2024-01-27T08:09:21;103607.41;;;0.71;100.00
71970;BME280;59838;52.152;5.436;2024-01-27T08:11:48;103606.38;;;0.77;100.00
71970;BME280;59838;52.152;5.436;2024-01-27T08:14:18;103605.34;;;0.83;100.00
71970;BME280;59838;52.152;5.436;2024-01-27T08:16:46;103607.63;;;0.90;100.00
71970;BME280;59838;52.152;5.436;2024-01-27T08:19:13;103609.94;;;0.98;100.00
71970;BME280;59838;52.152;5.436;2024-01-27T08:21:40;103614.00;;;1.05;100.00
71970;BME280;59838;52.152;5.436;2024-01-27T08:24:06;103621.44;;;1.12;100.00
71970;BME280;59838;52.152;5.436;2024-01-27T08:26:32;103614.34;;;1.20;100.00
71970;BME280;59838;52.152;5.436;2024-01-27T08:28:59;103605.56;;;1.27;100.00
71970;BME280;59838;52.152;5.436;2024-01-27T08:31:25;103617.22;;;1.36;100.00
71970;BME280;59838;52.152;5.436;2024-01-27T08:33:52;103610.16;;;1.42;100.00
71970;BME280;59838;52.152;5.436;2024-01-27T08:36:19;103611.66;;;1.48;100.00
71970;BME280;59838;52.152;5.436;2024-01-27T08:38:45;103614.78;;;1.56;100.00
71970;BME280;59838;52.152;5.436;2024-01-27T08:41:12;103617.03;;;1.66;100.00
71970;BME280;59838;52.152;5.436;2024-01-27T08:43:38;103610.00;;;1.71;100.00
71970;BME280;59838;52.152;5.436;2024-01-27T08:46:05;103618.25;;;1.79;100.00
71970;BME280;59838;52.152;5.436;2024-01-27T08:48:33;103613.63;;;1.89;100.00
71970;BME280;59838;52.152;5.436;2024-01-27T08:50:59;103617.56;;;1.97;100.00
71970;BME280;59838;52.152;5.436;2024-01-27T08:53:27;103623.25;;;2.06;100.00
71970;BME280;59838;52.152;5.436;2024-01-27T08:55:53;103611.09;;;2.11;100.00
71970;BME280;59838;52.152;5.436;2024-01-27T08:58:20;103606.47;;;2.21;100.00
71970;BME280;59838;52.152;5.436;2024-01-27T09:00:46;103616.28;;;2.31;100.00
71970;BME280;59838;52.152;5.436;2024-01-27T09:03:13;103625.31;;;2.42;100.00
71970;BME280;59838;52.152;5.436;2024-01-27T09:05:40;103620.00;;;2.46;100.00
71970;BME280;59838;52.152;5.436;2024-01-27T09:08:10;103617.34;;;2.48;100.00
71970;BME280;59838;52.152;5.436;2024-01-27T09:10:36;103614.50;;;2.55;100.00
71970;BME280;59838;52.152;5.436;2024-01-27T09:13:03;103620.22;;;2.62;100.00
71970;BME280;59838;52.152;5.436;2024-01-27T09:15:31;103621.13;;;2.61;100.00
71970;BME280;59838;52.152;5.436;2024-01-27T09:17:57;103618.44;;;2.64;100.00
71970;BME280;59838;52.152;5.436;2024-01-27T09:20:24;103627.59;;;2.70;100.00
71970;BME280;59838;52.152;5.436;2024-01-27T09:22:50;103626.84;;;2.68;100.00
71970;BME280;59838;52.152;5.436;2024-01-27T09:25:17;103632.03;;;2.66;100.00
71970;BME280;59838;52.152;5.436;2024-01-27T09:27:43;103635.44;;;2.67;100.00
71970;BME280;59838;52.152;5.436;2024-01-27T09:30:10;103625.16;;;2.67;100.00
71970;BME280;59838;52.152;5.436;2024-01-27T09:32:37;103627.59;;;2.70;100.00
71970;BME280;59838;52.152;5.436;2024-01-27T09:35:03;103632.50;;;2.76;100.00
71970;BME280;59838;52.152;5.436;2024-01-27T09:37:30;103642.47;;;2.84;100.00
71970;BME280;59838;52.152;5.436;2024-01-27T09:39:58;103641.31;;;2.91;100.00
71970;BME280;59838;52.152;5.436;2024-01-27T09:42:27;103651.28;;;2.99;100.00
71970;BME280;59838;52.152;5.436;2024-01-27T09:44:56;103654.53;;;3.02;100.00
71970;BME280;59838;52.152;5.436;2024-01-27T09:47:22;103653.47;;;3.08;100.00
71970;BME280;59838;52.152;5.436;2024-01-27T09:49:50;103663.47;;;3.14;100.00
71970;BME280;59838;52.152;5.436;2024-01-27T09:52:17;103657.25;;;3.20;100.00
71970;BME280;59838;52.152;5.436;2024-01-27T09:54:44;103662.97;;;3.26;100.00
71970;BME280;59838;52.152;5.436;2024-01-27T09:57:11;103678.00;;;3.36;100.00
71970;BME280;59838;52.152;5.436;2024-01-27T09:59:41;103676.84;;;3.43;100.00
71970;BME280;59838;52.152;5.436;2024-01-27T10:02:11;103673.13;;;3.50;100.00
71970;BME280;59838;52.152;5.436;2024-01-27T10:04:41;103679.72;;;3.56;100.00
71970;BME280;59838;52.152;5.436;2024-01-27T10:07:08;103683.72;;;3.63;100.00
71970;BME280;59838;52.152;5.436;2024-01-27T10:09:35;103691.25;;;3.66;100.00
71970;BME280;59838;52.152;5.436;2024-01-27T10:12:01;103690.88;;;3.75;100.00
71970;BME280;59838;52.152;5.436;2024-01-27T10:14:41;103670.78;;;3.83;100.00
71970;BME280;59838;52.152;5.436;2024-01-27T10:17:11;103673.91;;;3.90;100.00
71970;BME280;59838;52.152;5.436;2024-01-27T10:19:38;103676.97;;;3.98;100.00
71970;BME280;59838;52.152;5.436;2024-01-27T10:22:10;103673.19;;;4.07;100.00
71970;BME280;59838;52.152;5.436;2024-01-27T10:24:37;103684.09;;;4.12;100.00
71970;BME280;59838;52.152;5.436;2024-01-27T10:27:04;103681.25;;;4.18;100.00
71970;BME280;59838;52.152;5.436;2024-01-27T10:29:31;103674.97;;;4.24;100.00
71970;BME280;59838;52.152;5.436;2024-01-27T10:32:08;103680.53;;;4.34;100.00
71970;BME280;59838;52.152;5.436;2024-01-27T10:34:35;103686.22;;;4.40;100.00
71970;BME280;59838;52.152;5.436;2024-01-27T10:37:04;103695.34;;;4.48;100.00
71970;BME280;59838;52.152;5.436;2024-01-27T10:39:30;103701.03;;;4.54;100.00
71970;BME280;59838;52.152;5.436;2024-01-27T10:42:02;103701.72;;;4.58;100.00
71970;BME280;59838;52.152;5.436;2024-01-27T10:44:29;103696.28;;;4.64;100.00
71970;BME280;59838;52.152;5.436;2024-01-27T10:46:56;103692.66;;;4.68;100.00
71970;BME280;59838;52.152;5.436;2024-01-27T10:49:28;103688.13;;;4.73;100.00
71970;BME280;59838;52.152;5.436;2024-01-27T10:51:56;103688.66;;;4.80;100.00
71970;BME280;59838;52.152;5.436;2024-01-27T10:54:25;103678.06;;;4.86;100.00
71970;BME280;59838;52.152;5.436;2024-01-27T10:56:55;103675.34;;;4.89;100.00
71970;BME280;59838;52.152;5.436;2024-01-27T10:59:22;103666.47;;;4.95;100.00
71970;BME280;59838;52.152;5.436;2024-01-27T11:01:49;103658.38;;;5.03;100.00
71970;BME280;59838;52.152;5.436;2024-01-27T11:04:21;103658.00;;;5.10;100.00
71970;BME280;59838;52.152;5.436;2024-01-27T11:06:49;103662.66;;;5.20;100.00
71970;BME280;59838;52.152;5.436;2024-01-27T11:09:18;103663.81;;;5.31;100.00
71970;BME280;59838;52.152;5.436;2024-01-27T11:11:45;103657.34;;;5.40;100.00
71970;BME280;59838;52.152;5.436;2024-01-27T11:14:13;103657.78;;;5.48;100.00
71970;BME280;59838;52.152;5.436;2024-01-27T11:16:40;103660.03;;;5.55;100.00
71970;BME280;59838;52.152;5.436;2024-01-27T11:19:11;103659.72;;;5.61;100.00
71970;BME280;59838;52.152;5.436;2024-01-27T11:21:38;103660.16;;;5.69;100.00
71970;BME280;59838;52.152;5.436;2024-01-27T11:24:15;103657.03;;;5.80;100.00
71970;BME280;59838;52.152;5.436;2024-01-27T11:26:42;103660.19;;;5.85;100.00
71970;BME280;59838;52.152;5.436;2024-01-27T11:29:09;103657.81;;;5.98;100.00
71970;BME280;59838;52.152;5.436;2024-01-27T11:31:45;103658.22;;;6.06;100.00
71970;BME280;59838;52.152;5.436;2024-01-27T11:34:11;103652.75;;;6.12;100.00
71970;BME280;59838;52.152;5.436;2024-01-27T11:36:45;103644.72;;;6.17;100.00
71970;BME280;59838;52.152;5.436;2024-01-27T11:39:28;103650.22;;;6.27;100.00
71970;BME280;59838;52.152;5.436;2024-01-27T11:42:10;103646.66;;;6.29;100.00
71970;BME280;59838;52.152;5.436;2024-01-27T11:44:41;103648.97;;;6.34;100.00
71970;BME280;59838;52.152;5.436;2024-01-27T11:47:18;103640.03;;;6.39;100.00
71970;BME280;59838;52.152;5.436;2024-01-27T11:49:53;103640.53;;;6.46;100.00
71970;BME280;59838;52.152;5.436;2024-01-27T11:52:21;103635.09;;;6.51;100.00
71970;BME280;59838;52.152;5.436;2024-01-27T11:54:55;103631.44;;;6.55;100.00
71970;BME280;59838;52.152;5.436;2024-01-27T11:57:22;103621.69;;;6.60;100.00
71970;BME280;59838;52.152;5.436;2024-01-27T11:59:50;103630.00;;;6.65;100.00
71970;BME280;59838;52.152;5.436;2024-01-27T12:02:16;103621.34;;;6.66;100.00
71970;BME280;59838;52.152;5.436;2024-01-27T12:04:43;103621.34;;;6.66;100.00
71970;BME280;59838;52.152;5.436;2024-01-27T12:07:10;103629.66;;;6.71;100.00
71970;BME280;59838;52.152;5.436;2024-01-27T12:09:36;103625.97;;;6.75;100.00
71970;BME280;59838;52.152;5.436;2024-01-27T12:12:04;103624.78;;;6.81;100.00
71970;BME280;59838;52.152;5.436;2024-01-27T12:14:44;103621.03;;;6.87;100.00
71970;BME280;59838;52.152;5.436;2024-01-27T12:17:12;103620.16;;;6.86;100.00
71970;BME280;59838;52.152;5.436;2024-01-27T12:19:39;103625.06;;;6.91;100.00
71970;BME280;59838;52.152;5.436;2024-01-27T12:22:29;103615.56;;;6.91;99.65
71970;BME280;59838;52.152;5.436;2024-01-27T12:25:08;103620.47;;;6.96;99.62
71970;BME280;59838;52.152;5.436;2024-01-27T12:27:35;103614.31;;;6.99;99.50
71970;BME280;59838;52.152;5.436;2024-01-27T12:30:02;103611.53;;;7.02;99.50
71970;BME280;59838;52.152;5.436;2024-01-27T12:32:29;103613.00;;;7.06;99.22
71970;BME280;59838;52.152;5.436;2024-01-27T12:34:57;103610.16;;;7.10;99.28
71970;BME280;59838;52.152;5.436;2024-01-27T12:37:27;103609.88;;;7.15;98.76
71970;BME280;59838;52.152;5.436;2024-01-27T12:39:54;103611.47;;;7.18;98.17
71970;BME280;59838;52.152;5.436;2024-01-27T12:42:20;103609.78;;;7.17;96.92
71970;BME280;59838;52.152;5.436;2024-01-27T12:44:48;103611.47;;;7.18;96.32
71970;BME280;59838;52.152;5.436;2024-01-27T12:47:14;103626.69;;;7.22;96.14
71970;BME280;59838;52.152;5.436;2024-01-27T12:49:41;103626.41;;;7.27;96.47